sensor_id;sensor_type;location;lat;lon;timestamp;P1;durP1;ratioP1;P2;durP2;ratioP2
1308;SDS011;647;48.840;9.314;2023-07-22T00:02:22;56.97;;;2.40;;
1308;SDS011;647;48.840;9.314;2023-07-22T00:04:51;57.17;;;2.60;;
1308;SDS011;647;48.840;9.314;2023-07-22T00:07:18;56.90;;;2.47;;
1308;SDS011;647;48.840;9.314;2023-07-22T00:09:45;56.70;;;2.30;;
1308;SDS011;647;48.840;9.314;2023-07-22T00:12:15;56.77;;;2.37;;
1308;SDS011;647;48.840;9.314;2023-07-22T00:14:42;57.40;;;2.40;;
1308;SDS011;647;48.840;9.314;2023-07-22T00:17:09;56.97;;;2.40;;
1308;SDS011;647;48.840;9.314;2023-07-22T00:19:36;57.43;;;2.77;;
1308;SDS011;647;48.840;9.314;2023-07-22T00:22:05;57.10;;;2.40;;
1308;SDS011;647;48.840;9.314;2023-07-22T00:24:32;56.90;;;2.60;;
1308;SDS011;647;48.840;9.314;2023-07-22T00:26:59;56.87;;;2.50;;
1308;SDS011;647;48.840;9.314;2023-07-22T00:29:26;56.77;;;2.37;;
1308;SDS011;647;48.840;9.314;2023-07-22T00:31:53;57.07;;;2.57;;
1308;SDS011;647;48.840;9.314;2023-07-22T00:34:21;57.20;;;2.80;;
1308;SDS011;647;48.840;9.314;2023-07-22T00:36:48;56.90;;;2.50;;
1308;SDS011;647;48.840;9.314;2023-07-22T00:39:17;56.77;;;2.60;;
1308;SDS011;647;48.840;9.314;2023-07-22T00:41:45;56.67;;;2.30;;
1308;SDS011;647;48.840;9.314;2023-07-22T00:44:12;56.97;;;2.60;;
1308;SDS011;647;48.840;9.314;2023-07-22T00:46:39;57.10;;;2.40;;
1308;SDS011;647;48.840;9.314;2023-07-22T00:49:07;56.87;;;2.50;;
1308;SDS011;647;48.840;9.314;2023-07-22T00:51:34;59.67;;;2.53;;
1308;SDS011;647;48.840;9.314;2023-07-22T00:54:01;57.30;;;3.67;;
1308;SDS011;647;48.840;9.314;2023-07-22T00:56:31;56.87;;;2.40;;
1308;SDS011;647;48.840;9.314;2023-07-22T00:59:00;57.07;;;2.90;;
1308;SDS011;647;48.840;9.314;2023-07-22T01:01:27;57.07;;;2.60;;
1308;SDS011;647;48.840;9.314;2023-07-22T01:03:54;57.07;;;2.40;;
1308;SDS011;647;48.840;9.314;2023-07-22T01:06:21;56.83;;;2.40;;
1308;SDS011;647;48.840;9.314;2023-07-22T01:08:49;57.03;;;2.40;;
1308;SDS011;647;48.840;9.314;2023-07-22T01:11:16;56.90;;;2.40;;
1308;SDS011;647;48.840;9.314;2023-07-22T01:13:45;56.97;;;2.57;;
1308;SDS011;647;48.840;9.314;2023-07-22T01:16:12;56.67;;;2.40;;
1308;SDS011;647;48.840;9.314;2023-07-22T01:18:39;57.00;;;2.70;;
1308;SDS011;647;48.840;9.314;2023-07-22T01:21:06;56.73;;;2.50;;
1308;SDS011;647;48.840;9.314;2023-07-22T01:23:36;57.27;;;2.47;;
1308;SDS011;647;48.840;9.314;2023-07-22T01:26:04;57.13;;;2.50;;
1308;SDS011;647;48.840;9.314;2023-07-22T01:28:34;57.10;;;2.40;;
1308;SDS011;647;48.840;9.314;2023-07-22T01:31:02;57.10;;;2.80;;
1308;SDS011;647;48.840;9.314;2023-07-22T01:33:30;56.83;;;2.40;;
1308;SDS011;647;48.840;9.314;2023-07-22T01:35:57;56.77;;;2.50;;
1308;SDS011;647;48.840;9.314;2023-07-22T01:38:24;56.97;;;2.40;;
1308;SDS011;647;48.840;9.314;2023-07-22T01:40:53;56.57;;;2.47;;
1308;SDS011;647;48.840;9.314;2023-07-22T01:43:20;56.90;;;2.50;;
1308;SDS011;647;48.840;9.314;2023-07-22T01:45:47;57.03;;;2.60;;
1308;SDS011;647;48.840;9.314;2023-07-22T01:48:14;56.77;;;2.53;;
1308;SDS011;647;48.840;9.314;2023-07-22T01:50:41;57.30;;;2.70;;
1308;SDS011;647;48.840;9.314;2023-07-22T01:53:08;57.03;;;2.50;;
1308;SDS011;647;48.840;9.314;2023-07-22T01:55:35;57.27;;;2.70;;
1308;SDS011;647;48.840;9.314;2023-07-22T01:58:04;57.00;;;2.70;;
1308;SDS011;647;48.840;9.314;2023-07-22T02:00:31;56.97;;;2.57;;
1308;SDS011;647;48.840;9.314;2023-07-22T02:02:58;57.20;;;2.90;;
1308;SDS011;647;48.840;9.314;2023-07-22T02:05:25;57.03;;;2.60;;
1308;SDS011;647;48.840;9.314;2023-07-22T02:07:54;57.07;;;2.57;;
1308;SDS011;647;48.840;9.314;2023-07-22T02:10:21;57.07;;;2.60;;
1308;SDS011;647;48.840;9.314;2023-07-22T02:12:49;56.87;;;2.43;;
1308;SDS011;647;48.840;9.314;2023-07-22T02:15:17;56.87;;;2.50;;
1308;SDS011;647;48.840;9.314;2023-07-22T02:17:44;57.00;;;2.60;;
1308;SDS011;647;48.840;9.314;2023-07-22T02:20:11;57.00;;;2.50;;
1308;SDS011;647;48.840;9.314;2023-07-22T02:22:38;57.03;;;2.47;;
1308;SDS011;647;48.840;9.314;2023-07-22T02:25:06;57.17;;;2.63;;
1308;SDS011;647;48.840;9.314;2023-07-22T02:27:35;56.77;;;2.60;;
1308;SDS011;647;48.840;9.314;2023-07-22T02:30:04;57.13;;;2.50;;
1308;SDS011;647;48.840;9.314;2023-07-22T02:32:36;57.07;;;2.37;;
1308;SDS011;647;48.840;9.314;2023-07-22T02:35:03;57.00;;;2.37;;
1308;SDS011;647;48.840;9.314;2023-07-22T02:37:31;57.03;;;2.63;;
1308;SDS011;647;48.840;9.314;2023-07-22T02:39:58;57.00;;;2.40;;
1308;SDS011;647;48.840;9.314;2023-07-22T02:42:25;58.60;;;3.17;;
1308;SDS011;647;48.840;9.314;2023-07-22T02:44:52;56.93;;;2.60;;
1308;SDS011;647;48.840;9.314;2023-07-22T02:47:19;56.87;;;2.50;;
1308;SDS011;647;48.840;9.314;2023-07-22T02:49:47;56.73;;;2.40;;
1308;SDS011;647;48.840;9.314;2023-07-22T02:52:14;56.97;;;2.50;;
1308;SDS011;647;48.840;9.314;2023-07-22T02:54:42;56.97;;;2.47;;
1308;SDS011;647;48.840;9.314;2023-07-22T02:57:09;57.17;;;2.50;;
1308;SDS011;647;48.840;9.314;2023-07-22T02:59:36;57.10;;;2.60;;
1308;SDS011;647;48.840;9.314;2023-07-22T03:02:03;57.07;;;2.50;;
1308;SDS011;647;48.840;9.314;2023-07-22T03:04:30;57.10;;;2.50;;
1308;SDS011;647;48.840;9.314;2023-07-22T03:06:58;61.80;;;3.23;;
1308;SDS011;647;48.840;9.314;2023-07-22T03:09:26;56.87;;;2.40;;
1308;SDS011;647;48.840;9.314;2023-07-22T03:11:53;56.90;;;2.33;;
1308;SDS011;647;48.840;9.314;2023-07-22T03:14:21;57.07;;;2.70;;
1308;SDS011;647;48.840;9.314;2023-07-22T03:16:48;56.77;;;2.47;;
1308;SDS011;647;48.840;9.314;2023-07-22T03:19:16;57.07;;;2.47;;
1308;SDS011;647;48.840;9.314;2023-07-22T03:21:43;57.13;;;2.50;;
1308;SDS011;647;48.840;9.314;2023-07-22T03:24:11;57.30;;;2.57;;
1308;SDS011;647;48.840;9.314;2023-07-22T03:26:39;56.93;;;2.60;;
1308;SDS011;647;48.840;9.314;2023-07-22T03:29:06;56.87;;;2.40;;
1308;SDS011;647;48.840;9.314;2023-07-22T03:31:33;57.80;;;3.40;;
1308;SDS011;647;48.840;9.314;2023-07-22T03:34:00;57.30;;;2.80;;
1308;SDS011;647;48.840;9.314;2023-07-22T03:36:27;57.27;;;3.73;;
1308;SDS011;647;48.840;9.314;2023-07-22T03:38:55;57.27;;;2.70;;
1308;SDS011;647;48.840;9.314;2023-07-22T03:41:23;57.27;;;2.70;;
1308;SDS011;647;48.840;9.314;2023-07-22T03:43:50;57.17;;;2.60;;
1308;SDS011;647;48.840;9.314;2023-07-22T03:46:17;57.03;;;2.70;;
1308;SDS011;647;48.840;9.314;2023-07-22T03:48:44;56.93;;;2.60;;
1308;SDS011;647;48.840;9.314;2023-07-22T03:51:12;57.07;;;2.57;;
1308;SDS011;647;48.840;9.314;2023-07-22T03:53:39;56.93;;;2.60;;
1308;SDS011;647;48.840;9.314;2023-07-22T03:56:06;56.87;;;2.43;;
1308;SDS011;647;48.840;9.314;2023-07-22T03:58:34;57.20;;;2.70;;
1308;SDS011;647;48.840;9.314;2023-07-22T04:01:01;57.00;;;2.50;;
1308;SDS011;647;48.840;9.314;2023-07-22T04:03:28;56.87;;;2.57;;
1308;SDS011;647;48.840;9.314;2023-07-22T04:05:55;56.77;;;2.40;;
1308;SDS011;647;48.840;9.314;2023-07-22T04:08:23;57.90;;;2.70;;
1308;SDS011;647;48.840;9.314;2023-07-22T04:10:53;56.97;;;2.40;;
1308;SDS011;647;48.840;9.314;2023-07-22T04:13:20;56.80;;;2.50;;
1308;SDS011;647;48.840;9.314;2023-07-22T04:15:48;57.10;;;2.57;;
1308;SDS011;647;48.840;9.314;2023-07-22T04:18:15;57.30;;;2.80;;
1308;SDS011;647;48.840;9.314;2023-07-22T04:20:43;56.67;;;2.50;;
1308;SDS011;647;48.840;9.314;2023-07-22T04:23:10;56.80;;;2.53;;
1308;SDS011;647;48.840;9.314;2023-07-22T04:25:38;59.00;;;3.17;;
1308;SDS011;647;48.840;9.314;2023-07-22T04:28:05;57.17;;;2.60;;
1308;SDS011;647;48.840;9.314;2023-07-22T04:30:33;57.30;;;2.70;;
1308;SDS011;647;48.840;9.314;2023-07-22T04:33:02;56.97;;;2.57;;
1308;SDS011;647;48.840;9.314;2023-07-22T04:35:31;56.93;;;2.67;;
1308;SDS011;647;48.840;9.314;2023-07-22T04:37:58;57.03;;;2.60;;
1308;SDS011;647;48.840;9.314;2023-07-22T04:40:25;56.93;;;2.50;;
1308;SDS011;647;48.840;9.314;2023-07-22T04:42:52;56.87;;;2.50;;
1308;SDS011;647;48.840;9.314;2023-07-22T04:45:19;56.73;;;2.50;;
1308;SDS011;647;48.840;9.314;2023-07-22T04:47:46;56.97;;;2.40;;
1308;SDS011;647;48.840;9.314;2023-07-22T04:50:15;57.10;;;2.70;;
1308;SDS011;647;48.840;9.314;2023-07-22T04:52:42;57.20;;;3.10;;
1308;SDS011;647;48.840;9.314;2023-07-22T04:55:10;57.07;;;2.63;;
1308;SDS011;647;48.840;9.314;2023-07-22T04:57:38;56.70;;;2.40;;
1308;SDS011;647;48.840;9.314;2023-07-22T05:00:06;57.17;;;2.60;;
1308;SDS011;647;48.840;9.314;2023-07-22T05:02:35;59.10;;;3.80;;
1308;SDS011;647;48.840;9.314;2023-07-22T05:05:02;56.87;;;2.93;;
1308;SDS011;647;48.840;9.314;2023-07-22T05:07:30;56.73;;;2.43;;
1308;SDS011;647;48.840;9.314;2023-07-22T05:09:57;56.93;;;2.47;;
1308;SDS011;647;48.840;9.314;2023-07-22T05:12:25;56.67;;;2.60;;
1308;SDS011;647;48.840;9.314;2023-07-22T05:14:52;56.60;;;2.50;;
1308;SDS011;647;48.840;9.314;2023-07-22T05:17:19;56.70;;;2.60;;
1308;SDS011;647;48.840;9.314;2023-07-22T05:19:46;56.70;;;2.60;;
1308;SDS011;647;48.840;9.314;2023-07-22T05:22:14;56.70;;;2.50;;
1308;SDS011;647;48.840;9.314;2023-07-22T05:24:43;56.60;;;2.40;;
1308;SDS011;647;48.840;9.314;2023-07-22T05:27:10;56.57;;;2.50;;
1308;SDS011;647;48.840;9.314;2023-07-22T05:29:37;56.57;;;2.60;;
1308;SDS011;647;48.840;9.314;2023-07-22T05:32:05;56.87;;;2.60;;
1308;SDS011;647;48.840;9.314;2023-07-22T05:34:32;56.70;;;2.40;;
1308;SDS011;647;48.840;9.314;2023-07-22T05:36:59;56.90;;;2.40;;
1308;SDS011;647;48.840;9.314;2023-07-22T05:39:26;56.90;;;2.40;;
1308;SDS011;647;48.840;9.314;2023-07-22T05:41:54;56.67;;;2.40;;
1308;SDS011;647;48.840;9.314;2023-07-22T05:44:21;57.00;;;2.80;;
1308;SDS011;647;48.840;9.314;2023-07-22T05:46:49;56.90;;;2.70;;
1308;SDS011;647;48.840;9.314;2023-07-22T05:49:16;56.50;;;2.60;;
1308;SDS011;647;48.840;9.314;2023-07-22T05:51:43;56.63;;;2.40;;
1308;SDS011;647;48.840;9.314;2023-07-22T05:54:10;56.87;;;2.50;;
1308;SDS011;647;48.840;9.314;2023-07-22T05:56:37;56.97;;;2.50;;
1308;SDS011;647;48.840;9.314;2023-07-22T05:59:05;56.70;;;2.50;;
1308;SDS011;647;48.840;9.314;2023-07-22T06:01:32;56.90;;;2.70;;
1308;SDS011;647;48.840;9.314;2023-07-22T06:04:00;56.70;;;2.50;;
1308;SDS011;647;48.840;9.314;2023-07-22T06:06:27;56.67;;;2.40;;
1308;SDS011;647;48.840;9.314;2023-07-22T06:08:54;56.73;;;2.40;;
1308;SDS011;647;48.840;9.314;2023-07-22T06:11:21;61.10;;;2.90;;
1308;SDS011;647;48.840;9.314;2023-07-22T06:13:48;56.67;;;2.60;;
1308;SDS011;647;48.840;9.314;2023-07-22T06:16:17;57.10;;;2.63;;
1308;SDS011;647;48.840;9.314;2023-07-22T06:18:44;57.00;;;2.50;;
1308;SDS011;647;48.840;9.314;2023-07-22T06:21:11;56.83;;;2.67;;
1308;SDS011;647;48.840;9.314;2023-07-22T06:23:38;56.90;;;2.50;;
1308;SDS011;647;48.840;9.314;2023-07-22T06:26:05;56.67;;;2.50;;
1308;SDS011;647;48.840;9.314;2023-07-22T06:28:32;56.77;;;2.60;;
1308;SDS011;647;48.840;9.314;2023-07-22T06:30:59;56.63;;;2.30;;
1308;SDS011;647;48.840;9.314;2023-07-22T06:33:28;56.97;;;2.77;;
1308;SDS011;647;48.840;9.314;2023-07-22T06:35:55;57.40;;;2.50;;
1308;SDS011;647;48.840;9.314;2023-07-22T06:38:22;56.87;;;2.40;;
1308;SDS011;647;48.840;9.314;2023-07-22T06:40:51;56.60;;;2.30;;
1308;SDS011;647;48.840;9.314;2023-07-22T06:43:19;56.60;;;2.50;;
1308;SDS011;647;48.840;9.314;2023-07-22T06:45:46;56.90;;;2.83;;
1308;SDS011;647;48.840;9.314;2023-07-22T06:48:14;56.40;;;2.30;;
1308;SDS011;647;48.840;9.314;2023-07-22T06:50:47;56.73;;;2.30;;
1308;SDS011;647;48.840;9.314;2023-07-22T06:53:14;56.47;;;2.20;;
1308;SDS011;647;48.840;9.314;2023-07-22T06:55:47;56.70;;;3.23;;
1308;SDS011;647;48.840;9.314;2023-07-22T06:58:15;56.57;;;2.40;;
1308;SDS011;647;48.840;9.314;2023-07-22T07:00:42;56.57;;;2.30;;
1308;SDS011;647;48.840;9.314;2023-07-22T07:03:09;57.00;;;2.73;;
1308;SDS011;647;48.840;9.314;2023-07-22T07:05:36;60.00;;;2.70;;
1308;SDS011;647;48.840;9.314;2023-07-22T07:08:07;57.10;;;2.37;;
1308;SDS011;647;48.840;9.314;2023-07-22T07:10:36;57.10;;;2.40;;
1308;SDS011;647;48.840;9.314;2023-07-22T07:13:04;56.50;;;2.20;;
1308;SDS011;647;48.840;9.314;2023-07-22T07:15:31;56.30;;;2.20;;
1308;SDS011;647;48.840;9.314;2023-07-22T07:17:58;56.70;;;2.43;;
1308;SDS011;647;48.840;9.314;2023-07-22T07:20:25;56.57;;;2.30;;
1308;SDS011;647;48.840;9.314;2023-07-22T07:22:52;56.50;;;2.10;;
1308;SDS011;647;48.840;9.314;2023-07-22T07:25:21;56.60;;;2.30;;
1308;SDS011;647;48.840;9.314;2023-07-22T07:27:48;56.23;;;2.00;;
1308;SDS011;647;48.840;9.314;2023-07-22T07:30:15;56.40;;;2.10;;
1308;SDS011;647;48.840;9.314;2023-07-22T07:32:42;56.47;;;1.93;;
1308;SDS011;647;48.840;9.314;2023-07-22T07:35:09;56.57;;;2.23;;
1308;SDS011;647;48.840;9.314;2023-07-22T07:37:36;56.20;;;2.03;;
1308;SDS011;647;48.840;9.314;2023-07-22T07:40:04;56.67;;;2.30;;
1308;SDS011;647;48.840;9.314;2023-07-22T07:42:32;56.23;;;2.10;;
1308;SDS011;647;48.840;9.314;2023-07-22T07:45:00;56.40;;;2.30;;
1308;SDS011;647;48.840;9.314;2023-07-22T07:47:27;56.57;;;2.10;;
1308;SDS011;647;48.840;9.314;2023-07-22T07:49:54;57.50;;;2.70;;
1308;SDS011;647;48.840;9.314;2023-07-22T07:52:21;56.33;;;2.00;;
1308;SDS011;647;48.840;9.314;2023-07-22T07:54:48;56.50;;;2.10;;
1308;SDS011;647;48.840;9.314;2023-07-22T07:57:15;56.53;;;2.00;;
1308;SDS011;647;48.840;9.314;2023-07-22T07:59:44;56.40;;;2.20;;
1308;SDS011;647;48.840;9.314;2023-07-22T08:02:11;56.87;;;2.60;;
1308;SDS011;647;48.840;9.314;2023-07-22T08:04:38;56.17;;;2.33;;
1308;SDS011;647;48.840;9.314;2023-07-22T08:07:06;56.90;;;2.20;;
1308;SDS011;647;48.840;9.314;2023-07-22T08:09:33;56.80;;;2.20;;
1308;SDS011;647;48.840;9.314;2023-07-22T08:12:01;56.87;;;2.20;;
1308;SDS011;647;48.840;9.314;2023-07-22T08:14:28;56.70;;;2.10;;
1308;SDS011;647;48.840;9.314;2023-07-22T08:16:57;56.63;;;2.03;;
1308;SDS011;647;48.840;9.314;2023-07-22T08:19:24;56.20;;;2.00;;
1308;SDS011;647;48.840;9.314;2023-07-22T08:21:51;58.50;;;2.87;;
1308;SDS011;647;48.840;9.314;2023-07-22T08:24:18;56.17;;;2.10;;
1308;SDS011;647;48.840;9.314;2023-07-22T08:26:45;56.67;;;2.53;;
1308;SDS011;647;48.840;9.314;2023-07-22T08:29:12;56.43;;;2.23;;
1308;SDS011;647;48.840;9.314;2023-07-22T08:31:39;55.67;;;2.00;;
1308;SDS011;647;48.840;9.314;2023-07-22T08:34:08;56.43;;;2.17;;
1308;SDS011;647;48.840;9.314;2023-07-22T08:36:35;56.47;;;2.20;;
1308;SDS011;647;48.840;9.314;2023-07-22T08:39:02;56.50;;;2.30;;
1308;SDS011;647;48.840;9.314;2023-07-22T08:41:29;56.47;;;2.10;;
1308;SDS011;647;48.840;9.314;2023-07-22T08:43:56;56.70;;;2.00;;
1308;SDS011;647;48.840;9.314;2023-07-22T08:46:25;55.97;;;1.80;;
1308;SDS011;647;48.840;9.314;2023-07-22T08:48:54;57.40;;;2.40;;
1308;SDS011;647;48.840;9.314;2023-07-22T08:51:22;56.50;;;2.03;;
1308;SDS011;647;48.840;9.314;2023-07-22T08:53:53;56.50;;;1.93;;
1308;SDS011;647;48.840;9.314;2023-07-22T08:56:22;56.80;;;2.30;;
1308;SDS011;647;48.840;9.314;2023-07-22T08:58:50;56.77;;;2.03;;
1308;SDS011;647;48.840;9.314;2023-07-22T09:01:18;56.27;;;2.10;;
1308;SDS011;647;48.840;9.314;2023-07-22T09:03:45;56.00;;;2.00;;
1308;SDS011;647;48.840;9.314;2023-07-22T09:06:13;56.70;;;2.00;;
1308;SDS011;647;48.840;9.314;2023-07-22T09:08:42;56.27;;;2.00;;
1308;SDS011;647;48.840;9.314;2023-07-22T09:11:09;56.30;;;1.97;;
1308;SDS011;647;48.840;9.314;2023-07-22T09:13:37;58.07;;;2.40;;
1308;SDS011;647;48.840;9.314;2023-07-22T09:16:05;55.97;;;2.30;;
1308;SDS011;647;48.840;9.314;2023-07-22T09:18:33;56.20;;;2.00;;
1308;SDS011;647;48.840;9.314;2023-07-22T09:21:00;56.40;;;1.90;;
1308;SDS011;647;48.840;9.314;2023-07-22T09:23:31;56.47;;;1.90;;
1308;SDS011;647;48.840;9.314;2023-07-22T09:26:09;56.20;;;2.47;;
1308;SDS011;647;48.840;9.314;2023-07-22T09:28:49;56.20;;;2.23;;
1308;SDS011;647;48.840;9.314;2023-07-22T09:31:16;56.30;;;1.90;;
1308;SDS011;647;48.840;9.314;2023-07-22T09:33:43;57.00;;;2.60;;
1308;SDS011;647;48.840;9.314;2023-07-22T09:36:10;56.37;;;1.90;;
1308;SDS011;647;48.840;9.314;2023-07-22T09:38:37;56.37;;;2.10;;
1308;SDS011;647;48.840;9.314;2023-07-22T09:41:05;56.80;;;2.33;;
1308;SDS011;647;48.840;9.314;2023-07-22T09:43:36;56.20;;;1.90;;
1308;SDS011;647;48.840;9.314;2023-07-22T09:46:07;56.80;;;2.23;;
1308;SDS011;647;48.840;9.314;2023-07-22T09:48:41;56.17;;;1.80;;
1308;SDS011;647;48.840;9.314;2023-07-22T09:51:11;56.60;;;2.30;;
1308;SDS011;647;48.840;9.314;2023-07-22T09:53:43;56.10;;;1.73;;
1308;SDS011;647;48.840;9.314;2023-07-22T09:56:10;56.30;;;1.90;;
1308;SDS011;647;48.840;9.314;2023-07-22T09:58:39;56.27;;;1.83;;
1308;SDS011;647;48.840;9.314;2023-07-22T10:01:07;56.80;;;2.10;;
1308;SDS011;647;48.840;9.314;2023-07-22T10:03:34;56.40;;;1.93;;
1308;SDS011;647;48.840;9.314;2023-07-22T10:06:03;56.23;;;1.67;;
1308;SDS011;647;48.840;9.314;2023-07-22T10:08:34;56.20;;;1.80;;
1308;SDS011;647;48.840;9.314;2023-07-22T10:11:03;56.17;;;1.60;;
1308;SDS011;647;48.840;9.314;2023-07-22T10:13:32;56.20;;;1.80;;
1308;SDS011;647;48.840;9.314;2023-07-22T10:16:01;56.50;;;2.00;;
1308;SDS011;647;48.840;9.314;2023-07-22T10:18:28;56.07;;;1.90;;
1308;SDS011;647;48.840;9.314;2023-07-22T10:20:56;56.27;;;2.00;;
1308;SDS011;647;48.840;9.314;2023-07-22T10:23:25;56.27;;;1.73;;
1308;SDS011;647;48.840;9.314;2023-07-22T10:25:52;56.80;;;2.50;;
1308;SDS011;647;48.840;9.314;2023-07-22T10:28:21;55.90;;;1.70;;
1308;SDS011;647;48.840;9.314;2023-07-22T10:30:49;56.00;;;1.73;;
1308;SDS011;647;48.840;9.314;2023-07-22T10:33:17;55.67;;;1.70;;
1308;SDS011;647;48.840;9.314;2023-07-22T10:36:01;56.10;;;2.00;;
1308;SDS011;647;48.840;9.314;2023-07-22T10:38:28;55.77;;;2.00;;
1308;SDS011;647;48.840;9.314;2023-07-22T10:40:56;55.87;;;1.57;;
1308;SDS011;647;48.840;9.314;2023-07-22T10:43:24;55.73;;;1.73;;
1308;SDS011;647;48.840;9.314;2023-07-22T10:45:52;56.07;;;1.73;;
1308;SDS011;647;48.840;9.314;2023-07-22T10:48:21;55.87;;;1.77;;
1308;SDS011;647;48.840;9.314;2023-07-22T10:50:49;56.07;;;1.90;;
1308;SDS011;647;48.840;9.314;2023-07-22T10:53:20;55.97;;;1.70;;
1308;SDS011;647;48.840;9.314;2023-07-22T10:56:03;58.73;;;2.27;;
1308;SDS011;647;48.840;9.314;2023-07-22T10:58:30;56.57;;;1.70;;
1308;SDS011;647;48.840;9.314;2023-07-22T11:06:23;55.90;;;1.63;;
1308;SDS011;647;48.840;9.314;2023-07-22T11:08:50;55.90;;;1.93;;
1308;SDS011;647;48.840;9.314;2023-07-22T11:11:18;55.60;;;1.60;;
1308;SDS011;647;48.840;9.314;2023-07-22T11:13:46;56.87;;;1.77;;
1308;SDS011;647;48.840;9.314;2023-07-22T11:16:13;55.50;;;1.60;;
1308;SDS011;647;48.840;9.314;2023-07-22T11:18:40;55.50;;;1.50;;
1308;SDS011;647;48.840;9.314;2023-07-22T11:21:08;55.63;;;1.50;;
1308;SDS011;647;48.840;9.314;2023-07-22T11:23:37;55.77;;;1.67;;
1308;SDS011;647;48.840;9.314;2023-07-22T11:26:04;55.67;;;1.50;;
1308;SDS011;647;48.840;9.314;2023-07-22T11:28:31;56.30;;;1.70;;
1308;SDS011;647;48.840;9.314;2023-07-22T11:30:58;55.97;;;1.73;;
1308;SDS011;647;48.840;9.314;2023-07-22T11:33:26;56.20;;;1.70;;
1308;SDS011;647;48.840;9.314;2023-07-22T11:35:53;55.70;;;1.70;;
1308;SDS011;647;48.840;9.314;2023-07-22T11:38:20;56.10;;;1.70;;
1308;SDS011;647;48.840;9.314;2023-07-22T11:40:48;56.50;;;1.87;;
1308;SDS011;647;48.840;9.314;2023-07-22T11:43:15;56.00;;;1.70;;
1308;SDS011;647;48.840;9.314;2023-07-22T11:45:42;55.90;;;1.60;;
1308;SDS011;647;48.840;9.314;2023-07-22T11:48:10;55.73;;;1.73;;
1308;SDS011;647;48.840;9.314;2023-07-22T11:50:38;55.90;;;1.80;;
1308;SDS011;647;48.840;9.314;2023-07-22T11:53:05;55.60;;;1.40;;
1308;SDS011;647;48.840;9.314;2023-07-22T11:55:34;56.00;;;2.40;;
1308;SDS011;647;48.840;9.314;2023-07-22T11:58:03;55.40;;;1.50;;
1308;SDS011;647;48.840;9.314;2023-07-22T12:00:32;55.57;;;1.70;;
1308;SDS011;647;48.840;9.314;2023-07-22T12:03:04;55.40;;;1.40;;
1308;SDS011;647;48.840;9.314;2023-07-22T12:05:31;55.27;;;1.70;;
1308;SDS011;647;48.840;9.314;2023-07-22T12:08:02;55.13;;;1.70;;
1308;SDS011;647;48.840;9.314;2023-07-22T12:10:31;55.17;;;1.40;;
1308;SDS011;647;48.840;9.314;2023-07-22T12:13:00;55.40;;;2.00;;
1308;SDS011;647;48.840;9.314;2023-07-22T12:15:29;55.10;;;1.70;;
1308;SDS011;647;48.840;9.314;2023-07-22T12:17:58;55.23;;;1.53;;
1308;SDS011;647;48.840;9.314;2023-07-22T12:20:26;54.97;;;1.50;;
1308;SDS011;647;48.840;9.314;2023-07-22T12:22:53;55.10;;;1.60;;
1308;SDS011;647;48.840;9.314;2023-07-22T12:25:20;54.87;;;1.40;;
1308;SDS011;647;48.840;9.314;2023-07-22T12:27:48;55.20;;;1.70;;
1308;SDS011;647;48.840;9.314;2023-07-22T12:30:15;55.07;;;1.53;;
1308;SDS011;647;48.840;9.314;2023-07-22T12:32:43;55.20;;;1.63;;
1308;SDS011;647;48.840;9.314;2023-07-22T12:35:10;55.10;;;1.60;;
1308;SDS011;647;48.840;9.314;2023-07-22T12:37:38;55.07;;;1.50;;
1308;SDS011;647;48.840;9.314;2023-07-22T12:40:06;55.97;;;2.00;;
1308;SDS011;647;48.840;9.314;2023-07-22T12:42:33;55.20;;;2.30;;
1308;SDS011;647;48.840;9.314;2023-07-22T12:45:00;55.07;;;1.60;;
1308;SDS011;647;48.840;9.314;2023-07-22T12:47:27;55.20;;;2.17;;
1308;SDS011;647;48.840;9.314;2023-07-22T12:49:56;54.80;;;1.90;;
1308;SDS011;647;48.840;9.314;2023-07-22T12:52:23;54.80;;;1.70;;
1308;SDS011;647;48.840;9.314;2023-07-22T12:54:50;55.00;;;1.60;;
1308;SDS011;647;48.840;9.314;2023-07-22T12:57:17;55.00;;;1.90;;
1308;SDS011;647;48.840;9.314;2023-07-22T12:59:44;55.30;;;1.70;;
1308;SDS011;647;48.840;9.314;2023-07-22T13:02:11;56.30;;;2.10;;
1308;SDS011;647;48.840;9.314;2023-07-22T13:04:38;55.70;;;2.20;;
1308;SDS011;647;48.840;9.314;2023-07-22T13:07:07;55.60;;;1.90;;
1308;SDS011;647;48.840;9.314;2023-07-22T13:09:34;55.80;;;1.70;;
1308;SDS011;647;48.840;9.314;2023-07-22T13:12:01;56.10;;;2.03;;
1308;SDS011;647;48.840;9.314;2023-07-22T13:14:28;56.60;;;1.70;;
1308;SDS011;647;48.840;9.314;2023-07-22T13:16:55;56.40;;;2.10;;
1308;SDS011;647;48.840;9.314;2023-07-22T13:19:22;55.90;;;1.90;;
1308;SDS011;647;48.840;9.314;2023-07-22T13:21:50;55.70;;;1.57;;
1308;SDS011;647;48.840;9.314;2023-07-22T13:24:18;55.60;;;1.93;;
1308;SDS011;647;48.840;9.314;2023-07-22T13:26:45;55.60;;;2.47;;
1308;SDS011;647;48.840;9.314;2023-07-22T13:29:12;55.80;;;1.70;;
1308;SDS011;647;48.840;9.314;2023-07-22T13:31:39;55.20;;;1.40;;
1308;SDS011;647;48.840;9.314;2023-07-22T13:34:06;55.67;;;1.97;;
1308;SDS011;647;48.840;9.314;2023-07-22T13:36:33;55.60;;;2.03;;
1308;SDS011;647;48.840;9.314;2023-07-22T13:39:01;56.10;;;2.13;;
1308;SDS011;647;48.840;9.314;2023-07-22T13:41:29;55.60;;;1.70;;
1308;SDS011;647;48.840;9.314;2023-07-22T13:43:56;55.80;;;1.60;;
1308;SDS011;647;48.840;9.314;2023-07-22T13:46:23;56.67;;;2.37;;
1308;SDS011;647;48.840;9.314;2023-07-22T13:48:51;55.70;;;1.90;;
1308;SDS011;647;48.840;9.314;2023-07-22T13:51:18;55.30;;;1.57;;
1308;SDS011;647;48.840;9.314;2023-07-22T13:53:45;55.30;;;1.43;;
1308;SDS011;647;48.840;9.314;2023-07-22T13:56:12;55.10;;;1.77;;
1308;SDS011;647;48.840;9.314;2023-07-22T13:58:40;56.33;;;2.37;;
1308;SDS011;647;48.840;9.314;2023-07-22T14:01:07;55.60;;;1.90;;
1308;SDS011;647;48.840;9.314;2023-07-22T14:03:34;55.27;;;1.60;;
1308;SDS011;647;48.840;9.314;2023-07-22T14:06:01;55.80;;;1.93;;
1308;SDS011;647;48.840;9.314;2023-07-22T14:08:29;55.50;;;1.60;;
1308;SDS011;647;48.840;9.314;2023-07-22T14:10:56;55.67;;;1.60;;
1308;SDS011;647;48.840;9.314;2023-07-22T14:13:23;55.90;;;1.67;;
1308;SDS011;647;48.840;9.314;2023-07-22T14:15:51;55.30;;;1.50;;
1308;SDS011;647;48.840;9.314;2023-07-22T14:18:18;55.37;;;1.80;;
1308;SDS011;647;48.840;9.314;2023-07-22T14:20:46;56.37;;;2.33;;
1308;SDS011;647;48.840;9.314;2023-07-22T14:23:14;55.80;;;2.10;;
1308;SDS011;647;48.840;9.314;2023-07-22T14:25:41;56.00;;;1.90;;
1308;SDS011;647;48.840;9.314;2023-07-22T14:28:08;55.60;;;1.80;;
1308;SDS011;647;48.840;9.314;2023-07-22T14:30:35;56.00;;;2.00;;
1308;SDS011;647;48.840;9.314;2023-07-22T14:33:03;55.47;;;1.50;;
1308;SDS011;647;48.840;9.314;2023-07-22T14:35:31;55.50;;;1.40;;
1308;SDS011;647;48.840;9.314;2023-07-22T14:37:59;55.87;;;1.73;;
1308;SDS011;647;48.840;9.314;2023-07-22T14:40:26;56.10;;;1.63;;
1308;SDS011;647;48.840;9.314;2023-07-22T14:42:54;56.67;;;2.80;;
1308;SDS011;647;48.840;9.314;2023-07-22T14:45:21;56.60;;;2.47;;
1308;SDS011;647;48.840;9.314;2023-07-22T14:47:48;57.27;;;1.60;;
1308;SDS011;647;48.840;9.314;2023-07-22T14:50:16;56.30;;;1.70;;
1308;SDS011;647;48.840;9.314;2023-07-22T14:52:44;55.80;;;1.90;;
1308;SDS011;647;48.840;9.314;2023-07-22T14:55:11;55.97;;;1.77;;
1308;SDS011;647;48.840;9.314;2023-07-22T14:57:38;56.10;;;1.90;;
1308;SDS011;647;48.840;9.314;2023-07-22T15:00:06;56.20;;;2.10;;
1308;SDS011;647;48.840;9.314;2023-07-22T15:02:33;56.20;;;2.63;;
1308;SDS011;647;48.840;9.314;2023-07-22T15:05:00;56.10;;;1.70;;
1308;SDS011;647;48.840;9.314;2023-07-22T15:07:29;55.83;;;1.53;;
1308;SDS011;647;48.840;9.314;2023-07-22T15:09:57;56.40;;;2.20;;
1308;SDS011;647;48.840;9.314;2023-07-22T15:12:24;56.80;;;2.10;;
1308;SDS011;647;48.840;9.314;2023-07-22T15:14:51;55.87;;;1.63;;
1308;SDS011;647;48.840;9.314;2023-07-22T15:17:18;56.00;;;1.80;;
1308;SDS011;647;48.840;9.314;2023-07-22T15:19:45;55.97;;;1.80;;
1308;SDS011;647;48.840;9.314;2023-07-22T15:22:12;55.77;;;1.60;;
1308;SDS011;647;48.840;9.314;2023-07-22T15:24:41;55.87;;;1.70;;